Terminal Aerodrome Forecast
Issued by NWS Mt. Holly, NJ

Current Version | Previous Version | Text Only | Print | Product List | Glossary On
Versions: 1 2 3 4 5 6 7 8 9 10 11 12
000
FTUS41 KPHI 271138
TAFTTN
TAF
KTTN 271138Z 2712/2812 20005KT P6SM BKN009
     FM271300 21007KT P6SM BKN014
     FM271500 23009G16KT P6SM SCT025
     FM271900 21012G20KT P6SM BKN045 PROB30 2723/2801 -TSRA OVC035CB
     FM280100 21007KT P6SM BKN100
     FM280900 20003KT 4SM BR SCT015=

USA.gov is the U.S. government's official web portal to all federal, state and local government web resources and services.